Latest Weather Observations for Mornington Island Airport

IDQ60801

Issued at 11:32 am EST Friday 9 December 2016 (issued every 30 minutes, with the page automatically refreshed every 10 minutes)

About weather observations | Map of weather stations | Latest weather observations for QLD | Other Formats
Station Details ID: 029182 Name: MORNINGTON ISLAND AIRPORT Lat: -16.66 Lon: 139.17 Height: 9.52 m
Data from the previous 72 hours. | See also: Recent months at Mornington Island Airport
Date/Time
EST
Temp
°C
App
Temp
°C
Dew
Point
°C
Rel
Hum
%
Delta-T
°C
Wind Press
QNH
hPa
Press
MSL
hPa
Rain since
9am
mm
Dir  Spd
km/h
Gust
km/h
Spd
kts
Gust
kts
09/11:30am 33.9 35.8 22.0 49 8.1 SSE 15 26 8 14 1009.6 1009.5 0.0
09/11:00am 33.2 34.0 21.4 50 8.0 SE 19 35 10 19 1010.1 1010.0 0.0
09/10:30am 32.8 33.9 22.0 53 7.4 ESE 19 30 10 16 1010.3 1010.2 0.0
09/10:00am 32.5 35.5 23.4 58 6.3 ESE 13 20 7 11 1010.5 1010.4 0.0
09/09:30am 30.6 33.9 23.8 67 4.7 E 13 20 7 11 1010.8 1010.7 0.0
09/09:00am 29.0 30.6 23.2 71 4.0 E 20 33 11 18 1010.9 1010.8 0.0
09/08:30am 30.8 36.1 24.4 68 4.5 SSW 4 9 2 5 1010.6 1010.5 0.0
09/08:00am 30.7 36.8 24.4 69 4.4 CALM 0 6 0 3 1010.5 1010.4 0.0
09/07:30am 29.6 35.6 24.9 76 3.3 ESE 2 6 1 3 1010.5 1010.4 0.0
09/07:00am 28.9 34.0 24.9 79 2.8 ESE 7 7 4 4 1009.8 1009.7 0.0
09/06:30am 28.9 34.0 24.9 79 2.8 NE 7 11 4 6 1009.3 1009.2 0.0
09/06:00am 28.7 35.0 24.7 79 2.8 CALM 0 0 0 0 1008.9 1008.8 0.0
09/05:30am 28.5 33.9 24.5 79 2.8 SSW 4 9 2 5 1008.2 1008.1 0.0
09/05:00am 28.4 33.4 24.8 81 2.5 SSW 7 15 4 8 1007.8 1007.7 0.0
09/04:30am 28.3 32.5 24.7 81 2.5 S 11 19 6 10 1007.3 1007.2 0.0
09/04:00am 29.2 33.3 25.2 79 2.8 SSW 13 22 7 12 1007.0 1006.9 0.0
09/03:30am 30.1 33.7 25.6 77 3.2 WNW 17 20 9 11 1006.3 1006.2 0.0
09/03:00am 30.1 33.3 24.9 73 3.7 WNW 17 20 9 11 1006.4 1006.3 0.0
09/02:30am 30.1 33.5 25.2 75 3.5 NW 17 20 9 11 1006.6 1006.5 0.0
09/02:00am 30.1 33.4 24.5 72 3.9 WNW 15 19 8 10 1006.7 1006.6 0.0
09/01:30am 30.2 33.3 24.1 70 4.2 WNW 15 17 8 9 1006.8 1006.7 0.0
09/01:00am 30.0 33.1 24.2 71 4.0 WNW 15 17 8 9 1006.9 1006.8 0.0
09/12:30am 29.9 33.1 24.3 72 3.9 WNW 15 19 8 10 1007.1 1007.0 0.0
09/12:00am 29.7 33.3 24.3 73 3.8 W 13 17 7 9 1007.6 1007.5 0.0
 
Date/Time
EST
Temp
°C
App
Temp
°C
Dew
Point
°C
Rel
Hum
%
Delta-T
°C
Wind Press
QNH
hPa
Press
MSL
hPa
Rain since
9am
mm
Dir  Spd
km/h
Gust
km/h
Spd
kts
Gust
kts
08/11:30pm 29.7 32.9 24.3 73 3.8 WNW 15 19 8 10 1008.0 1007.9 0.0
08/11:00pm 29.8 33.2 24.7 74 3.6 WNW 15 19 8 10 1008.1 1008.0 0.0
08/10:30pm 29.8 33.0 24.4 73 3.8 NW 15 19 8 10 1008.1 1008.0 0.0
08/10:00pm 29.8 33.0 24.4 73 3.8 NNW 15 19 8 10 1007.8 1007.7 0.0
08/09:30pm 29.6 33.5 24.2 73 3.8 NNW 11 15 6 8 1007.6 1007.5 0.0
08/09:00pm 29.8 33.0 24.4 73 3.8 NNW 15 19 8 10 1007.5 1007.4 0.0
08/08:30pm 29.6 33.4 24.0 72 3.9 NNW 11 17 6 9 1007.4 1007.3 0.0
08/08:00pm 29.7 33.5 24.1 72 3.9 NNW 11 13 6 7 1007.4 1007.3 0.0
08/07:30pm 29.9 33.5 23.8 70 4.2 N 11 17 6 9 1007.3 1007.2 0.0
08/07:00pm 30.0 32.8 23.7 69 4.4 N 15 20 8 11 1007.0 1006.9 0.0
08/06:30pm 30.6 33.1 23.8 67 4.7 N 17 22 9 12 1006.8 1006.7 0.0
08/06:00pm 31.0 33.2 23.9 66 4.9 N 19 22 10 12 1006.6 1006.5 0.0
08/05:30pm 31.1 33.0 23.5 64 5.3 N 19 24 10 13 1006.5 1006.4 0.0
08/05:00pm 31.9 34.1 24.2 63 5.4 N 20 26 11 14 1006.3 1006.2 0.0
08/04:30pm 31.5 33.5 23.9 64 5.3 N 20 28 11 15 1006.4 1006.3 0.0
08/04:00pm 31.8 33.4 23.3 60 5.9 N 20 32 11 17 1006.3 1006.2 0.0
08/03:30pm 32.1 33.5 23.6 60 5.9 NNW 22 30 12 16 1006.6 1006.5 0.0
08/03:00pm 32.1 34.1 23.9 62 5.7 N 20 32 11 17 1006.8 1006.7 0.0
08/02:30pm 31.9 33.6 24.0 63 5.5 NNW 22 33 12 18 1006.9 1006.8 0.0
08/02:00pm 32.7 34.1 23.6 58 6.3 NNW 22 32 12 17 1007.1 1007.0 0.0
08/01:30pm 33.6 35.2 24.5 59 6.4 NNW 24 35 13 19 1007.3 1007.2 0.0
08/01:00pm 32.6 33.8 23.8 59 6.1 N 24 35 13 19 1007.6 1007.5 0.0
08/12:30pm 33.2 34.5 24.1 59 6.4 N 24 33 13 18 1008.0 1007.9 0.0
08/12:00pm 32.7 33.5 22.5 55 7.0 N 22 33 12 18 1008.3 1008.2 0.0
08/11:30am 32.6 33.6 23.5 58 6.3 N 24 30 13 16 1008.6 1008.5 0.0
08/11:00am 32.9 34.5 23.2 56 6.7 N 20 30 11 16 1008.8 1008.7 0.0
08/10:30am 32.4 34.0 23.9 61 5.9 N 22 33 12 18 1009.0 1008.9 0.0
08/10:00am 32.8 34.0 23.2 57 6.6 N 22 30 12 16 1009.0 1008.9 0.0
08/09:30am 32.3 34.2 23.5 59 6.1 NNE 19 28 10 15 1009.1 1009.0 0.0
08/09:00am 31.7 33.0 22.4 58 6.4 N 19 26 10 14 1009.1 1009.0 0.0
08/08:30am 31.7 34.0 22.7 59 6.2 NNE 15 20 8 11 1009.2 1009.1 0.0
08/08:00am 30.8 35.7 25.2 72 4.0 NW 9 13 5 7 1009.1 1009.0 0.0
08/07:30am 30.6 35.5 25.2 73 3.8 NW 9 13 5 7 1008.8 1008.7 0.0
08/07:00am 30.1 34.3 25.4 76 3.3 NW 13 17 7 9 1008.3 1008.2 0.0
08/06:30am 29.6 33.2 25.6 79 2.8 WNW 17 20 9 11 1007.8 1007.7 0.0
08/06:00am 29.4 32.9 25.4 79 2.8 WNW 17 20 9 11 1007.2 1007.1 0.0
08/05:30am 29.3 33.0 25.1 78 3.0 W 15 20 8 11 1007.0 1006.9 0.0
08/05:00am 29.3 32.2 25.1 78 3.0 WNW 19 24 10 13 1006.8 1006.7 0.0
08/04:30am 29.4 32.8 25.2 78 3.0 WNW 17 22 9 12 1006.5 1006.4 0.0
08/04:00am 29.2 32.3 25.4 80 2.7 NW 19 22 10 12 1006.4 1006.3 0.0
08/03:30am 29.4 32.4 25.2 78 3.0 NW 19 24 10 13 1006.4 1006.3 0.0
08/03:00am 29.3 32.7 25.3 79 2.8 NW 17 20 9 11 1006.6 1006.5 0.0
08/02:30am 29.3 32.5 25.5 80 2.7 NW 19 20 10 11 1006.5 1006.4 0.0
08/02:00am 29.2 32.6 25.2 79 2.8 NW 17 20 9 11 1006.7 1006.6 0.0
08/01:30am 29.2 32.2 25.2 79 2.8 NW 19 24 10 13 1007.0 1006.9 0.0
08/01:00am 29.3 32.7 25.3 79 2.8 NNW 17 22 9 12 1007.4 1007.3 0.0
08/12:30am 29.4 32.5 25.4 79 2.8 NNW 19 22 10 12 1007.8 1007.7 0.0
08/12:00am 29.4 32.9 25.4 79 2.8 NNW 17 20 9 11 1008.2 1008.1 0.0
 
Date/Time
EST
Temp
°C
App
Temp
°C
Dew
Point
°C
Rel
Hum
%
Delta-T
°C
Wind Press
QNH
hPa
Press
MSL
hPa
Rain since
9am
mm
Dir  Spd
km/h
Gust
km/h
Spd
kts
Gust
kts
07/11:30pm 29.1 32.6 24.9 78 2.9 NNW 15 20 8 11 1008.4 1008.3 0.0
07/11:00pm 29.1 32.3 24.9 78 2.9 N 17 20 9 11 1008.4 1008.3 0.0
07/10:30pm 29.1 32.5 24.7 77 3.1 NNW 15 22 8 12 1008.5 1008.4 0.0
07/10:00pm 29.1 32.3 24.4 76 3.3 N 15 20 8 11 1008.4 1008.3 0.0
07/09:30pm 29.2 32.4 24.3 75 3.4 N 15 20 8 11 1008.2 1008.1 0.0
07/09:00pm 29.2 32.3 24.1 74 3.5 N 15 20 8 11 1008.0 1007.9 0.0
07/08:30pm 29.2 32.5 23.9 73 3.7 N 13 19 7 10 1007.9 1007.8 0.0
07/08:00pm 29.3 31.5 24.0 73 3.7 N 19 24 10 13 1007.8 1007.7 0.0
07/07:30pm 29.4 31.5 23.8 72 3.9 N 19 24 10 13 1007.8 1007.7 0.0
07/07:00pm 29.6 32.1 23.8 71 4.0 N 17 24 9 13 1007.8 1007.7 0.0
07/06:30pm 30.0 31.9 23.7 69 4.4 N 20 30 11 16 1007.6 1007.5 0.0
07/06:00pm 31.0 33.7 24.1 66 4.8 N 17 24 9 13 1007.6 1007.5 0.0
07/05:30pm 31.2 32.8 23.3 63 5.4 N 20 26 11 14 1007.3 1007.2 0.0
07/05:00pm 32.4 34.6 24.2 62 5.7 N 20 30 11 16 1007.3 1007.2 0.0
07/04:30pm 31.8 33.6 23.3 60 5.9 N 19 28 10 15 1007.3 1007.2 0.0
07/04:00pm 31.9 33.8 23.7 62 5.7 N 20 30 11 16 1007.4 1007.3 0.0
07/03:30pm 33.2 35.3 24.1 59 6.4 NNW 20 33 11 18 1007.6 1007.5 0.0
07/03:00pm 32.5 34.2 24.0 61 5.9 NW 22 28 12 15 1007.9 1007.8 0.0
07/02:30pm 32.1 33.7 23.9 62 5.7 NNW 22 30 12 16 1008.2 1008.1 0.0
07/02:00pm 32.2 33.7 23.7 61 5.9 NNW 22 32 12 17 1008.5 1008.4 0.0
07/01:30pm 32.7 34.1 23.6 58 6.3 NNW 22 30 12 16 1008.9 1008.8 0.0
07/01:00pm 32.5 33.9 22.9 57 6.6 NNW 20 30 11 16 1009.3 1009.2 0.0
07/12:30pm 33.4 34.0 22.8 53 7.3 NNW 24 35 13 19 1009.6 1009.5 0.0
07/12:00pm 32.5 32.9 21.7 53 7.3 N 22 32 12 17 1010.0 1009.9 0.0
07/11:30am 32.6 32.8 20.5 49 8.1 N 20 28 11 15 1010.5 1010.4 0.0
07/11:00am 32.8 33.4 21.3 50 7.8 N 20 28 11 15 1011.0 1010.9 0.0
07/10:30am 32.2 33.1 22.0 55 6.9 N 20 28 11 15 1011.3 1011.2 0.0
07/10:00am 32.5 33.4 22.0 54 7.1 N 20 30 11 16 1011.2 1011.1 0.0
07/09:30am 32.0 32.1 21.2 52 7.3 NNE 22 32 12 17 1011.2 1011.1 0.0
07/09:00am 31.5 32.0 21.9 56 6.5 NNE 22 30 12 16 1011.3 1011.2 0.0
07/08:30am 31.4 32.6 23.2 61 5.7 NNE 22 30 12 16 1011.0 1010.9 0.0
07/08:00am 30.8 32.2 22.9 62 5.4 NNE 20 26 11 14 1010.6 1010.5 0.0
07/07:30am 30.1 32.8 23.5 67 4.6 NNE 15 22 8 12 1010.4 1010.3 0.0
07/07:00am 28.8 32.6 24.1 76 3.3 NNE 11 17 6 9 1010.1 1010.0 0.0
07/06:30am 27.1 31.0 23.6 81 2.4 NNE 9 11 5 6 1009.7 1009.6 0.0
07/06:00am 26.7 30.0 23.2 81 2.4 NNE 11 15 6 8 1009.2 1009.1 0.0
07/05:30am 27.0 30.2 22.4 76 3.1 NNE 9 13 5 7 1008.6 1008.5 0.0
07/05:00am 29.9 32.9 22.6 65 5.0 WNW 11 13 6 7 1008.0 1007.9 0.0
07/04:30am 29.9 33.0 22.9 66 4.8 W 11 15 6 8 1007.6 1007.5 0.0
07/04:00am 29.8 32.3 22.5 65 5.0 WNW 13 15 7 8 1007.3 1007.2 0.0
07/03:30am 30.0 32.7 22.9 65 4.9 WNW 13 17 7 9 1007.3 1007.2 0.0
07/03:00am 29.9 32.3 22.9 66 4.8 W 15 17 8 9 1007.2 1007.1 0.0
07/02:30am 29.9 32.3 22.9 66 4.8 WNW 15 19 8 10 1007.2 1007.1 0.0
07/02:00am 29.7 32.2 23.2 68 4.5 WNW 15 19 8 10 1007.1 1007.0 0.0
07/01:30am 29.7 31.6 22.7 66 4.8 NW 17 19 9 10 1007.2 1007.1 0.0
07/01:00am 29.9 31.2 21.6 61 5.6 NW 17 19 9 10 1007.5 1007.4 0.0
07/12:30am 29.9 31.9 22.3 63 5.2 NW 15 19 8 10 1007.7 1007.6 0.0
07/12:00am 29.7 31.9 23.2 68 4.5 NW 17 20 9 11 1008.0 1007.9 0.0
 
Date/Time
EST
Temp
°C
App
Temp
°C
Dew
Point
°C
Rel
Hum
%
Delta-T
°C
Wind Press
QNH
hPa
Press
MSL
hPa
Rain since
9am
mm
Dir  Spd
km/h
Gust
km/h
Spd
kts
Gust
kts
06/11:30pm 29.6 32.3 22.8 67 4.6 NW 13 17 7 9 1008.1 1008.0 0.0
06/11:00pm 29.6 31.6 22.3 65 5.0 NW 15 17 8 9 1008.1 1008.0 0.0
06/10:30pm 29.5 31.9 22.2 65 4.9 NW 13 17 7 9 1008.1 1008.0 0.0
06/10:00pm 29.5 32.1 22.0 64 5.1 NW 11 13 6 7 1008.3 1008.2 0.0
06/09:30pm 29.5 32.0 21.7 63 5.2 NW 11 13 6 7 1008.3 1008.2 0.0
06/09:00pm 29.5 32.0 21.7 63 5.3 NW 11 13 6 7 1008.4 1008.3 0.0
06/08:30pm 29.6 31.9 21.3 61 5.6 WNW 11 13 6 7 1008.5 1008.4 0.0
06/08:00pm 29.6 31.7 21.0 60 5.7 NW 11 15 6 8 1008.6 1008.5 0.0
06/07:30pm 29.5 31.8 21.4 61 5.4 NW 11 13 6 7 1008.6 1008.5 0.0
06/07:00pm 29.8 31.8 21.5 61 5.6 NW 13 17 7 9 1008.5 1008.4 0.0
06/06:30pm 30.3 31.6 20.2 54 6.7 NW 13 17 7 9 1008.5 1008.4 0.0
06/06:00pm 30.5 31.8 21.6 59 6.0 NW 17 20 9 11 1008.3 1008.2 0.0
06/05:30pm 30.9 31.7 21.7 58 6.2 NW 20 26 11 14 1008.2 1008.1 0.0
06/05:00pm 31.7 32.7 22.1 56 6.5 NNW 20 28 11 15 1008.1 1008.0 0.0
06/04:30pm 31.3 32.1 21.8 57 6.4 NNW 20 24 11 13 1007.9 1007.8 0.0
06/04:00pm 31.6 32.0 21.7 55 6.7 NNW 22 28 12 15 1008.1 1008.0 0.0
06/03:30pm 31.7 32.1 21.8 55 6.7 NNW 22 30 12 16 1008.4 1008.3 0.0
06/03:00pm 32.3 32.5 22.7 57 6.6 NNW 26 32 14 17 1008.6 1008.5 0.0
06/02:30pm 32.0 32.3 23.0 59 6.2 NNW 26 37 14 20 1008.9 1008.8 0.0
06/02:00pm 32.7 33.1 23.1 57 6.6 NNW 26 33 14 18 1009.4 1009.3 0.0
06/01:30pm 32.5 32.9 23.2 58 6.4 N 26 33 14 18 1010.0 1009.9 0.0
06/01:00pm 32.6 33.4 23.8 59 6.1 N 26 35 14 19 1010.4 1010.3 0.0
06/12:30pm 32.3 32.4 23.3 59 6.2 N 28 37 15 20 1011.0 1010.9 0.0
06/12:00pm 33.2 34.0 23.2 55 6.9 N 24 35 13 19 1011.4 1011.3 0.0

Other Formats:

Comma delimited format used in spreadsheet applications
http://www.bom.gov.au/fwo/IDQ60801/IDQ60801.94254.axf

JavaScript Object Notation format (JSON) in row-major order
http://www.bom.gov.au/fwo/IDQ60801/IDQ60801.94254.json